Time;durP1;ratioP1;P1;durP2;ratioP2;P2;SDS_P1;SDS_P2;PMS_P1;PMS_P2;Temp;Humidity;BMP_temperature;BMP_pressure;BME280_temperature;BME280_humidity;BME280_pressure;Samples;Min_cycle;Max_cycle;Signal;HPM_P1;HPM_P2
2022/10/04 00:01:08;;;;;;;6.28;2.03;;;;;;;;;;4962302;28;20046;-78
2022/10/04 00:03:34;;;;;;;;;;;;;;;;;;4967781;28;20026;-78
2022/10/04 00:06:01;;;;;;;13.27;2.40;;;;;;;;;;4956607;28;20181;-77
2022/10/04 00:08:33;;;;;;;9.18;3.08;;;;;;;;;;4985310;28;20482;-78
2022/10/04 00:11:04;;;;;;;8.93;2.25;;;;;;;;;;4984210;28;20027;-79
2022/10/04 00:13:30;;;;;;;10.32;2.53;;;;;;;;;;4970995;28;20027;-77
2022/10/04 00:15:56;;;;;;;5.47;2.10;;;;;;;;;;4977449;28;20113;-77
2022/10/04 00:18:28;;;;;;;7.20;1.80;;;;;;;;;;5002030;28;20031;-77
2022/10/04 00:20:54;;;;;;;5.88;1.52;;;;;;;;;;4997187;28;20035;-77
2022/10/04 00:23:23;;;;;;;7.90;2.35;;;;;;;;;;4992888;28;20031;-76
2022/10/04 00:25:50;;;;;;;8.23;2.03;;;;;;;;;;4992952;28;20027;-76
2022/10/04 00:28:27;;;;;;;8.93;2.55;;;;;;;;;;4981523;28;20033;-79
2022/10/04 00:31:05;;;;;;;9.07;1.67;;;;;;;;;;4980993;28;20570;-77
2022/10/04 00:33:46;;;;;;;6.50;2.05;;;;;;;;;;4953076;28;20042;-77
2022/10/04 00:36:25;;;;;;;9.88;2.78;;;;;;;;;;4976476;28;20429;-77
2022/10/04 00:39:06;;;;;;;8.63;2.30;;;;;;;;;;4976797;28;20023;-78
2022/10/04 00:41:50;;;;;;;11.88;2.72;;;;;;;;;;4982282;28;20057;-78
2022/10/04 00:44:22;;;;;;;7.72;2.30;;;;;;;;;;4979160;28;20037;-78
2022/10/04 00:46:49;;;;;;;10.43;2.45;;;;;;;;;;4980139;28;20362;-78
2022/10/04 00:49:17;;;;;;;11.35;2.38;;;;;;;;;;4990091;28;20393;-79
2022/10/04 00:51:45;;;;;;;10.40;1.95;;;;;;;;;;4980834;28;20397;-78
2022/10/04 00:54:19;;;;;;;10.90;2.42;;;;;;;;;;4978972;28;20022;-79
2022/10/04 00:56:52;;;;;;;10.35;1.98;;;;;;;;;;4978370;28;20038;-79
2022/10/04 00:59:30;;;;;;;8.32;1.73;;;;;;;;;;4981811;28;20041;-79
2022/10/04 01:02:07;;;;;;;7.80;2.28;;;;;;;;;;4980992;28;20524;-78
2022/10/04 01:04:37;;;;;;;8.18;2.00;;;;;;;;;;4980840;28;20026;-79
2022/10/04 01:07:03;;;;;;;6.70;2.03;;;;;;;;;;4983400;28;20031;-79
2022/10/04 01:09:33;;;;;;;9.73;2.58;;;;;;;;;;4990723;28;20388;-78
2022/10/04 01:12:04;;;;;;;7.15;2.45;;;;;;;;;;4985172;28;20019;-79
2022/10/04 01:14:44;;;;;;;6.78;2.03;;;;;;;;;;4983747;28;20035;-78
2022/10/04 01:17:10;;;;;;;6.90;2.22;;;;;;;;;;4984794;28;20035;-77
2022/10/04 01:19:40;;;;;;;14.32;2.92;;;;;;;;;;4988519;28;20049;-78
2022/10/04 01:22:15;;;;;;;6.30;1.85;;;;;;;;;;4981559;28;20055;-78
2022/10/04 01:24:43;;;;;;;10.52;2.47;;;;;;;;;;4972410;28;20037;-78
2022/10/04 01:27:27;;;;;;;9.13;2.05;;;;;;;;;;4983039;28;20059;-78
2022/10/04 01:29:53;;;;;;;6.05;1.98;;;;;;;;;;4976595;28;20026;-78
2022/10/04 01:32:20;;;;;;;7.30;2.17;;;;;;;;;;4981993;28;20035;-77
2022/10/04 01:34:46;;;;;;;6.32;2.13;;;;;;;;;;4983969;28;20076;-79
2022/10/04 01:37:13;;;;;;;8.30;1.95;;;;;;;;;;4979661;28;20027;-77
2022/10/04 01:39:39;;;;;;;9.50;2.05;;;;;;;;;;4983433;28;20058;-78
2022/10/04 01:42:31;;;;;;;7.80;1.90;;;;;;;;;;4981300;28;20030;-78
2022/10/04 01:45:16;;;;;;;9.07;2.15;;;;;;;;;;4941811;28;20046;-79
2022/10/04 01:47:46;;;;;;;6.80;1.95;;;;;;;;;;4987170;28;20026;-79
2022/10/04 01:50:34;;;;;;;6.60;2.15;;;;;;;;;;4980364;28;20022;-78
2022/10/04 01:53:23;;;;;;;11.93;2.45;;;;;;;;;;4974153;28;20030;-78
2022/10/04 01:55:51;;;;;;;12.63;2.45;;;;;;;;;;4950264;28;20035;-78
2022/10/04 01:58:22;;;;;;;12.23;2.30;;;;;;;;;;4985049;28;20037;-78
2022/10/04 02:00:55;;;;;;;13.18;2.03;;;;;;;;;;4978470;28;20022;-77
2022/10/04 02:03:26;;;;;;;6.88;1.80;;;;;;;;;;4976749;28;20464;-77
2022/10/04 02:05:54;;;;;;;7.05;1.88;;;;;;;;;;4974989;28;20054;-77
2022/10/04 02:08:24;;;;;;;8.38;2.50;;;;;;;;;;4976789;28;20018;-77
2022/10/04 02:10:53;;;;;;;10.02;2.70;;;;;;;;;;4986602;28;20014;-77
2022/10/04 02:13:20;;;;;;;5.55;1.88;;;;;;;;;;4981730;28;20066;-78
2022/10/04 02:15:47;;;;;;;8.52;2.47;;;;;;;;;;4977623;28;20190;-75
2022/10/04 02:18:14;;;;;;;9.90;2.63;;;;;;;;;;4969784;28;20441;-78
2022/10/04 02:20:41;;;;;;;9.85;2.25;;;;;;;;;;4969492;28;20030;-79
2022/10/04 02:23:08;;;;;;;6.60;3.15;;;;;;;;;;4981207;28;20026;-79
2022/10/04 02:25:35;;;;;;;7.28;1.80;;;;;;;;;;4959686;28;20027;-77
2022/10/04 02:28:02;;;;;;;7.25;2.13;;;;;;;;;;4987552;28;20025;-79
2022/10/04 02:30:28;;;;;;;5.18;2.30;;;;;;;;;;4975718;28;20023;-78
2022/10/04 02:32:56;;;;;;;10.70;2.50;;;;;;;;;;4985559;28;20037;-79
2022/10/04 02:35:23;;;;;;;7.30;2.00;;;;;;;;;;4978583;28;20089;-79
2022/10/04 02:37:52;;;;;;;11.60;2.42;;;;;;;;;;4970090;28;20392;-79
2022/10/04 02:40:21;;;;;;;12.07;2.40;;;;;;;;;;4985553;28;20031;-79
2022/10/04 02:42:47;;;;;;;7.53;2.25;;;;;;;;;;4977950;28;20014;-78
2022/10/04 02:45:27;;;;;;;8.25;2.47;;;;;;;;;;4974373;28;20023;-78
2022/10/04 02:47:58;;;;;;;11.35;2.38;;;;;;;;;;4984265;28;20109;-78
2022/10/04 02:50:29;;;;;;;7.97;1.88;;;;;;;;;;4985721;28;20033;-79
2022/10/04 02:53:01;;;;;;;13.23;2.95;;;;;;;;;;4986099;28;20473;-79
2022/10/04 02:55:29;;;;;;;8.90;2.22;;;;;;;;;;4982327;28;20481;-79
2022/10/04 02:57:55;;;;;;;9.23;2.40;;;;;;;;;;4984586;28;20034;-79
2022/10/04 03:00:23;;;;;;;12.85;2.97;;;;;;;;;;4974853;28;20089;-79
2022/10/04 03:03:08;;;;;;;12.18;2.53;;;;;;;;;;4984259;28;20022;-79
2022/10/04 03:05:34;;;;;;;11.57;2.70;;;;;;;;;;4974243;28;20109;-79
2022/10/04 03:08:00;;;;;;;4.75;2.13;;;;;;;;;;4986231;28;20101;-79
2022/10/04 03:10:26;;;;;;;7.72;2.90;;;;;;;;;;4988010;28;20102;-79
2022/10/04 03:12:53;;;;;;;6.63;2.03;;;;;;;;;;4983155;28;20061;-80
2022/10/04 03:15:19;;;;;;;10.30;2.40;;;;;;;;;;4959956;28;20429;-79
2022/10/04 03:17:45;;;;;;;8.77;3.03;;;;;;;;;;4985498;28;20092;-77
2022/10/04 03:20:19;;;;;;;12.45;2.63;;;;;;;;;;4981751;28;20046;-77
2022/10/04 03:22:46;;;;;;;7.22;2.20;;;;;;;;;;4970566;28;20477;-78
2022/10/04 03:25:15;;;;;;;8.73;2.80;;;;;;;;;;4973716;28;20109;-78
2022/10/04 03:27:43;;;;;;;12.55;2.85;;;;;;;;;;4984109;28;20030;-78
2022/10/04 03:30:19;;;;;;;7.13;2.28;;;;;;;;;;4978136;28;20033;-80
2022/10/04 03:32:45;;;;;;;10.57;2.50;;;;;;;;;;4979483;28;20038;-80
2022/10/04 03:35:22;;;;;;;7.47;1.80;;;;;;;;;;4999358;28;20039;-79
2022/10/04 03:37:48;;;;;;;11.95;2.65;;;;;;;;;;4990023;28;20027;-78
2022/10/04 03:40:15;;;;;;;10.63;2.45;;;;;;;;;;4965340;28;20023;-77
2022/10/04 03:42:41;;;;;;;14.18;3.17;;;;;;;;;;4969934;28;20027;-77
2022/10/04 03:45:11;;;;;;;7.72;2.53;;;;;;;;;;4973894;28;20031;-78
2022/10/04 03:47:39;;;;;;;10.25;2.63;;;;;;;;;;4969180;28;20109;-77
2022/10/04 03:50:16;;;;;;;8.27;2.10;;;;;;;;;;4985725;28;20051;-78
2022/10/04 03:52:50;;;;;;;8.35;2.35;;;;;;;;;;4974342;28;20026;-79
2022/10/04 03:55:19;;;;;;;11.48;3.08;;;;;;;;;;4949448;28;20119;-78
2022/10/04 03:57:45;;;;;;;10.18;2.30;;;;;;;;;;4988695;28;20559;-76
2022/10/04 04:00:15;;;;;;;11.82;2.08;;;;;;;;;;4976953;28;20105;-77
2022/10/04 04:02:44;;;;;;;13.55;2.38;;;;;;;;;;4974274;28;20034;-77
2022/10/04 04:05:16;;;;;;;9.00;2.38;;;;;;;;;;4964870;28;20392;-77
2022/10/04 04:07:54;;;;;;;12.75;2.72;;;;;;;;;;4987603;28;20558;-77
2022/10/04 04:10:20;;;;;;;12.75;2.50;;;;;;;;;;4983156;28;20019;-77
2022/10/04 04:12:53;;;;;;;8.07;2.45;;;;;;;;;;4985528;28;20026;-78
2022/10/04 04:15:19;;;;;;;13.40;2.25;;;;;;;;;;4959882;28;20054;-78
2022/10/04 04:17:46;;;;;;;8.02;2.22;;;;;;;;;;4989966;28;20081;-79
2022/10/04 04:20:18;;;;;;;8.95;2.40;;;;;;;;;;4988248;28;20386;-79
2022/10/04 04:22:48;;;;;;;4.80;1.80;;;;;;;;;;4976665;28;20033;-79
2022/10/04 04:25:15;;;;;;;8.07;2.33;;;;;;;;;;4978558;28;20022;-78
2022/10/04 04:27:41;;;;;;;12.77;3.13;;;;;;;;;;4987189;28;20037;-78
2022/10/04 04:30:08;;;;;;;11.13;2.63;;;;;;;;;;4974955;28;20041;-78
2022/10/04 04:32:41;;;;;;;16.30;2.92;;;;;;;;;;4984688;28;20027;-78
2022/10/04 04:35:20;;;;;;;13.18;3.20;;;;;;;;;;4977183;28;20034;-77
2022/10/04 04:38:01;;;;;;;12.43;3.05;;;;;;;;;;4989679;28;20034;-78
2022/10/04 04:40:27;;;;;;;9.80;2.50;;;;;;;;;;4990169;28;20034;-79
2022/10/04 04:42:57;;;;;;;10.57;2.92;;;;;;;;;;4985842;28;20030;-78
2022/10/04 04:45:25;;;;;;;12.10;2.83;;;;;;;;;;4961695;28;20033;-79
2022/10/04 04:47:56;;;;;;;10.75;2.63;;;;;;;;;;4988781;28;20285;-78
2022/10/04 04:50:29;;;;;;;9.32;2.70;;;;;;;;;;4988612;28;20037;-79
2022/10/04 04:52:59;;;;;;;12.40;2.78;;;;;;;;;;4986956;28;20030;-78
2022/10/04 04:55:29;;;;;;;12.30;3.10;;;;;;;;;;4978870;28;20105;-78
2022/10/04 04:57:57;;;;;;;11.13;2.55;;;;;;;;;;4988857;28;20038;-79
2022/10/04 05:00:30;;;;;;;9.02;2.80;;;;;;;;;;4978386;28;20035;-79
2022/10/04 05:02:57;;;;;;;12.45;3.45;;;;;;;;;;4982941;28;20038;-78
2022/10/04 05:05:23;;;;;;;8.90;3.28;;;;;;;;;;4958795;28;20022;-79
2022/10/04 05:07:50;;;;;;;8.70;2.35;;;;;;;;;;4988270;28;20153;-79
2022/10/04 05:10:34;;;;;;;6.72;2.53;;;;;;;;;;4988935;28;20030;-79
2022/10/04 05:13:05;;;;;;;7.70;2.67;;;;;;;;;;4985068;28;20034;-79
2022/10/04 05:15:33;;;;;;;15.63;3.00;;;;;;;;;;4979634;28;20022;-80
2022/10/04 05:17:59;;;;;;;7.63;2.88;;;;;;;;;;4987505;28;20037;-77
2022/10/04 05:20:25;;;;;;;9.20;2.70;;;;;;;;;;4986208;28;20046;-76
2022/10/04 05:22:51;;;;;;;9.07;3.55;;;;;;;;;;4981903;28;20089;-77
2022/10/04 05:25:25;;;;;;;8.45;2.33;;;;;;;;;;4975887;28;20023;-78
2022/10/04 05:27:52;;;;;;;8.98;2.88;;;;;;;;;;4968919;28;20034;-78
2022/10/04 05:30:34;;;;;;;12.00;2.63;;;;;;;;;;4957919;28;20023;-78
2022/10/04 05:33:05;;;;;;;10.40;2.78;;;;;;;;;;4982618;28;20034;-77
2022/10/04 05:35:41;;;;;;;11.15;3.35;;;;;;;;;;4976641;28;20031;-78
2022/10/04 05:38:09;;;;;;;7.25;2.97;;;;;;;;;;4986692;28;20115;-79
2022/10/04 05:40:40;;;;;;;11.10;3.42;;;;;;;;;;4987270;28;20105;-79
2022/10/04 05:43:21;;;;;;;12.20;3.45;;;;;;;;;;4981824;28;20061;-79
2022/10/04 05:45:48;;;;;;;9.80;3.25;;;;;;;;;;4976074;28;20033;-79
2022/10/04 05:48:14;;;;;;;7.15;2.55;;;;;;;;;;4988305;28;20385;-80
2022/10/04 05:50:41;;;;;;;10.18;3.05;;;;;;;;;;4961794;28;20018;-79
2022/10/04 05:53:14;;;;;;;16.42;2.92;;;;;;;;;;4978335;28;20089;-79
2022/10/04 05:56:04;;;;;;;9.38;2.75;;;;;;;;;;4976279;28;20051;-78
2022/10/04 05:58:33;;;;;;;13.48;2.78;;;;;;;;;;4989040;28;20053;-78
2022/10/04 06:01:09;;;;;;;11.32;2.28;;;;;;;;;;4988342;28;20056;-78
2022/10/04 06:03:44;;;;;;;9.48;2.60;;;;;;;;;;4974645;28;20023;-79
2022/10/04 06:06:16;;;;;;;11.32;3.03;;;;;;;;;;4985033;28;20120;-78
2022/10/04 06:08:45;;;;;;;8.30;2.85;;;;;;;;;;4953908;28;20019;-80
2022/10/04 06:11:11;;;;;;;10.00;2.88;;;;;;;;;;4996450;28;20030;-79
2022/10/04 06:13:58;;;;;;;7.47;3.35;;;;;;;;;;4984501;28;20035;-80
2022/10/04 06:16:39;;;;;;;9.77;2.58;;;;;;;;;;4985855;28;20031;-79
2022/10/04 06:19:24;;;;;;;9.65;2.90;;;;;;;;;;5002390;28;20431;-81
2022/10/04 06:22:01;;;;;;;12.75;3.15;;;;;;;;;;4968122;28;20073;-80
2022/10/04 06:24:29;;;;;;;11.63;3.15;;;;;;;;;;4976115;28;20055;-78
2022/10/04 06:27:09;;;;;;;10.18;3.20;;;;;;;;;;4973781;28;20034;-78
2022/10/04 06:29:38;;;;;;;6.45;2.00;;;;;;;;;;4972859;28;20501;-78
2022/10/04 06:32:31;;;;;;;13.80;3.05;;;;;;;;;;4973109;28;20125;-77
2022/10/04 06:35:00;;;;;;;7.07;2.13;;;;;;;;;;4936560;28;20133;-78
2022/10/04 06:37:42;;;;;;;10.95;3.20;;;;;;;;;;4955276;28;20071;-78
2022/10/04 06:40:17;;;;;;;8.00;2.35;;;;;;;;;;4972328;28;20501;-77
2022/10/04 06:42:52;;;;;;;12.63;3.13;;;;;;;;;;4972569;28;20500;-78
2022/10/04 06:45:21;;;;;;;8.57;2.85;;;;;;;;;;4971144;28;20027;-77
2022/10/04 06:47:56;;;;;;;10.23;2.67;;;;;;;;;;4971323;28;20552;-77
2022/10/04 06:50:25;;;;;;;9.27;3.05;;;;;;;;;;4972314;28;20023;-77
2022/10/04 06:53:30;;;;;;;9.23;2.10;;;;;;;;;;4972174;28;20090;-78
2022/10/04 06:56:01;;;;;;;9.55;2.60;;;;;;;;;;4913261;29;20036;-76
2022/10/04 06:58:28;;;;;;;;;;;;;;;;;;4913809;29;20040;-77
2022/10/04 07:01:13;;;;;;;7.43;2.35;;;;;;;;;;4937309;28;19917;-77
2022/10/04 07:04:05;;;;;;;9.15;2.20;;;;;;;;;;4961039;28;20027;-78
2022/10/04 07:06:37;;;;;;;8.27;1.77;;;;;;;;;;4950787;28;20034;-78
2022/10/04 07:09:06;;;;;;;10.40;1.98;;;;;;;;;;4974435;28;20042;-76
2022/10/04 07:11:41;;;;;;;7.75;1.98;;;;;;;;;;4956653;28;20026;-78
2022/10/04 07:14:19;;;;;;;8.00;1.75;;;;;;;;;;4973734;28;20551;-78
2022/10/04 07:16:45;;;;;;;6.25;2.20;;;;;;;;;;4956165;28;20098;-77
2022/10/04 07:19:30;;;;;;;7.78;2.15;;;;;;;;;;4973776;28;20022;-78
2022/10/04 07:21:56;;;;;;;8.63;2.33;;;;;;;;;;4961389;28;20085;-76
2022/10/04 07:24:30;;;;;;;8.73;2.38;;;;;;;;;;4974698;28;20449;-78
2022/10/04 07:26:56;;;;;;;6.22;2.15;;;;;;;;;;4963011;28;20047;-77
2022/10/04 07:29:26;;;;;;;11.52;2.13;;;;;;;;;;4978695;28;20023;-77
2022/10/04 07:32:03;;;;;;;8.00;2.47;;;;;;;;;;4974050;28;20042;-77
2022/10/04 07:34:29;;;;;;;8.60;1.67;;;;;;;;;;4978237;28;20023;-77
2022/10/04 07:37:07;;;;;;;11.82;2.08;;;;;;;;;;4990506;28;20042;-76
2022/10/04 07:39:40;;;;;;;4.70;1.70;;;;;;;;;;4991020;28;20031;-77
2022/10/04 07:42:06;;;;;;;7.18;2.13;;;;;;;;;;4976898;28;20508;-76
2022/10/04 07:44:38;;;;;;;6.38;1.80;;;;;;;;;;4973219;28;20027;-78
2022/10/04 07:47:28;;;;;;;4.32;1.42;;;;;;;;;;4973206;28;20493;-74
2022/10/04 07:49:54;;;;;;;5.13;1.98;;;;;;;;;;4972743;28;20027;-76
2022/10/04 07:52:29;;;;;;;6.20;1.67;;;;;;;;;;4972975;28;20038;-76
2022/10/04 07:55:01;;;;;;;8.25;2.08;;;;;;;;;;4971713;28;20516;-76
2022/10/04 07:57:26;;;;;;;;;;;;;;;;;;4972794;28;20045;-77
2022/10/04 07:59:55;;;;;;;10.00;1.92;;;;;;;;;;4972510;28;20419;-76
2022/10/04 08:02:40;;;;;;;7.20;1.58;;;;;;;;;;4972643;28;20457;-77
2022/10/04 08:05:24;;;;;;;8.38;1.65;;;;;;;;;;4980442;28;20031;-77
2022/10/04 08:07:53;;;;;;;6.72;2.08;;;;;;;;;;4972306;28;20018;-77
2022/10/04 08:10:33;;;;;;;10.57;2.78;;;;;;;;;;4972526;28;20022;-76
2022/10/04 08:13:12;;;;;;;8.15;2.13;;;;;;;;;;4955702;28;20121;-79
2022/10/04 08:15:39;;;;;;;8.60;2.22;;;;;;;;;;4972106;28;20030;-79
2022/10/04 08:18:17;;;;;;;7.93;1.52;;;;;;;;;;4972632;28;20036;-77
2022/10/04 08:20:48;;;;;;;7.72;1.77;;;;;;;;;;4972910;28;20031;-76
2022/10/04 08:23:17;;;;;;;6.30;1.75;;;;;;;;;;4972204;28;20031;-79
2022/10/04 08:26:06;;;;;;;6.15;1.88;;;;;;;;;;4972766;28;20025;-78
2022/10/04 08:31:50;;;;;;;6.80;2.63;;;;;;;;;;4952413;28;20030;-77
2022/10/04 08:34:22;;;;;;;11.27;2.40;;;;;;;;;;4968375;28;20031;-77
2022/10/04 08:36:58;;;;;;;5.43;2.10;;;;;;;;;;4995893;28;20003;-81
2022/10/04 08:39:43;;;;;;;13.52;3.40;;;;;;;;;;4998627;28;20038;-78
2022/10/04 08:42:28;;;;;;;9.25;3.03;;;;;;;;;;4999833;28;20039;-81
2022/10/04 08:45:13;;;;;;;6.50;2.00;;;;;;;;;;4983938;28;20023;-78
2022/10/04 08:47:58;;;;;;;10.68;2.67;;;;;;;;;;4976972;28;20023;-78
2022/10/04 08:50:43;;;;;;;6.70;2.53;;;;;;;;;;4947325;28;20027;-77
2022/10/04 08:53:19;;;;;;;7.03;2.53;;;;;;;;;;4975264;28;20444;-79
2022/10/04 08:55:52;;;;;;;9.43;2.13;;;;;;;;;;4974650;28;20116;-79
2022/10/04 08:58:24;;;;;;;9.00;2.15;;;;;;;;;;4957109;28;20401;-77
2022/10/04 09:01:02;;;;;;;7.68;2.00;;;;;;;;;;4974834;28;20034;-76
2022/10/04 09:03:47;;;;;;;3.83;1.55;;;;;;;;;;4975062;28;20142;-77
2022/10/04 09:06:19;;;;;;;7.22;1.60;;;;;;;;;;4974943;28;20058;-77
2022/10/04 09:08:45;;;;;;;8.35;2.30;;;;;;;;;;4974980;28;20022;-76
2022/10/04 09:11:11;;;;;;;6.45;1.95;;;;;;;;;;4975453;28;20473;-77
2022/10/04 09:13:46;;;;;;;6.30;1.90;;;;;;;;;;4976347;28;20023;-77
2022/10/04 09:16:23;;;;;;;8.75;2.30;;;;;;;;;;4977461;28;20062;-76
2022/10/04 09:19:08;;;;;;;6.45;1.70;;;;;;;;;;4978751;28;20030;-77
2022/10/04 09:21:47;;;;;;;7.95;2.20;;;;;;;;;;4959340;28;20107;-77
2022/10/04 09:24:32;;;;;;;11.32;2.47;;;;;;;;;;4977079;28;20030;-77
2022/10/04 09:27:07;;;;;;;6.72;1.88;;;;;;;;;;4965371;28;20014;-75
2022/10/04 09:29:52;;;;;;;4.35;2.03;;;;;;;;;;4976602;28;20022;-77
2022/10/04 09:32:25;;;;;;;8.80;2.17;;;;;;;;;;4975352;28;20094;-76
2022/10/04 09:35:10;;;;;;;9.48;2.40;;;;;;;;;;4975926;28;20023;-77
2022/10/04 09:37:44;;;;;;;9.68;1.90;;;;;;;;;;4975445;28;20106;-76
2022/10/04 09:40:29;;;;;;;7.30;2.10;;;;;;;;;;4975221;28;20062;-77
2022/10/04 09:43:04;;;;;;;8.77;1.83;;;;;;;;;;4975188;28;20037;-76
2022/10/04 09:45:40;;;;;;;10.57;2.05;;;;;;;;;;4975182;28;20031;-78
2022/10/04 09:48:25;;;;;;;5.43;1.17;;;;;;;;;;4956967;28;20083;-77
2022/10/04 09:50:51;;;;;;;8.07;1.73;;;;;;;;;;4974391;28;20568;-77
2022/10/04 09:53:36;;;;;;;4.05;1.45;;;;;;;;;;4974297;28;20111;-79
2022/10/04 09:56:18;;;;;;;8.60;1.60;;;;;;;;;;4974902;28;20185;-77
2022/10/04 09:59:07;;;;;;;7.50;1.50;;;;;;;;;;4974020;28;20035;-77
2022/10/04 10:01:44;;;;;;;6.00;1.60;;;;;;;;;;4972347;28;20023;-78
2022/10/04 10:04:29;;;;;;;4.70;1.65;;;;;;;;;;4972500;28;20031;-78
2022/10/04 10:07:00;;;;;;;5.57;1.58;;;;;;;;;;4959835;28;20362;-77
2022/10/04 10:15:42;;;;;;;5.43;1.38;;;;;;;;;;4941608;28;20116;-77
2022/10/04 10:18:26;;;;;;;8.52;1.35;;;;;;;;;;4973427;28;20401;-76
2022/10/04 10:21:11;;;;;;;5.90;1.45;;;;;;;;;;4956728;28;20035;-77
2022/10/04 10:23:44;;;;;;;7.53;1.73;;;;;;;;;;4961960;28;20056;-77
2022/10/04 10:26:28;;;;;;;6.70;1.73;;;;;;;;;;4975820;28;20075;-77
2022/10/04 10:28:56;;;;;;;5.57;1.20;;;;;;;;;;4956549;28;20054;-78
2022/10/04 10:31:41;;;;;;;4.93;1.40;;;;;;;;;;4973904;28;20478;-77
2022/10/04 10:34:07;;;;;;;5.28;1.30;;;;;;;;;;4973849;28;20034;-79
2022/10/04 10:36:39;;;;;;;5.28;1.20;;;;;;;;;;4973339;28;20077;-79
2022/10/04 10:39:08;;;;;;;3.78;1.20;;;;;;;;;;4973635;28;20030;-78
2022/10/04 10:42:02;;;;;;;8.55;1.98;;;;;;;;;;4973547;28;20023;-78
2022/10/04 10:44:37;;;;;;;6.00;1.58;;;;;;;;;;4973601;28;20031;-78
2022/10/04 10:47:29;;;;;;;8.65;1.85;;;;;;;;;;4973395;28;20400;-79
2022/10/04 10:50:14;;;;;;;6.10;1.95;;;;;;;;;;4951005;28;20069;-78
2022/10/04 10:52:59;;;;;;;8.13;1.52;;;;;;;;;;4973436;28;20030;-76
2022/10/04 10:55:43;;;;;;;5.93;1.60;;;;;;;;;;4961798;28;20105;-76
2022/10/04 10:58:28;;;;;;;4.97;1.55;;;;;;;;;;4973264;28;20033;-78
2022/10/04 11:01:00;;;;;;;8.18;1.85;;;;;;;;;;4948906;28;20273;-76
2022/10/04 11:03:47;;;;;;;6.63;1.60;;;;;;;;;;4973013;28;20026;-77
2022/10/04 11:06:29;;;;;;;7.43;1.80;;;;;;;;;;4973058;28;20093;-76
2022/10/04 11:09:13;;;;;;;4.05;1.85;;;;;;;;;;4973275;28;20485;-76
2022/10/04 11:11:58;;;;;;;8.95;2.33;;;;;;;;;;4973169;28;20370;-76
2022/10/04 11:14:24;;;;;;;7.03;1.08;;;;;;;;;;4973246;28;20410;-77
2022/10/04 11:17:08;;;;;;;9.02;1.90;;;;;;;;;;4973344;28;20097;-77
2022/10/04 11:19:40;;;;;;;6.57;1.90;;;;;;;;;;4973153;28;20482;-77
2022/10/04 11:22:12;;;;;;;8.85;1.85;;;;;;;;;;4973449;28;20085;-76
2022/10/04 11:24:58;;;;;;;10.23;2.45;;;;;;;;;;4973151;28;20019;-77
2022/10/04 11:27:56;;;;;;;4.68;1.65;;;;;;;;;;4955603;28;20026;-77
2022/10/04 11:30:28;;;;;;;6.32;1.52;;;;;;;;;;4938439;28;20035;-76
2022/10/04 11:32:55;;;;;;;3.95;1.10;;;;;;;;;;4955852;28;20022;-79
2022/10/04 11:35:32;;;;;;;7.45;1.63;;;;;;;;;;4972923;28;20516;-78
2022/10/04 11:38:04;;;;;;;6.03;1.45;;;;;;;;;;4954947;28;20031;-78
2022/10/04 11:40:38;;;;;;;7.97;1.60;;;;;;;;;;4972983;28;20408;-77
2022/10/04 11:43:06;;;;;;;7.55;1.52;;;;;;;;;;4972575;28;20031;-76
2022/10/04 11:45:53;;;;;;;7.97;1.40;;;;;;;;;;4972972;28;20374;-75
2022/10/04 11:48:18;;;;;;;8.52;1.50;;;;;;;;;;4972326;28;20023;-77
2022/10/04 11:50:48;;;;;;;5.00;1.20;;;;;;;;;;4972889;28;20486;-76
2022/10/04 11:53:26;;;;;;;4.65;1.30;;;;;;;;;;4972877;28;20366;-76
2022/10/04 11:55:56;;;;;;;4.20;1.40;;;;;;;;;;4972510;28;20094;-76
2022/10/04 11:58:35;;;;;;;3.85;1.10;;;;;;;;;;4972059;28;20039;-76
2022/10/04 12:01:01;;;;;;;4.60;1.40;;;;;;;;;;4972632;28;20035;-76
2022/10/04 12:03:30;;;;;;;10.80;2.15;;;;;;;;;;4972277;28;20033;-76
2022/10/04 12:06:00;;;;;;;5.30;1.45;;;;;;;;;;4972744;28;20023;-75
2022/10/04 12:08:32;;;;;;;4.95;1.45;;;;;;;;;;4975269;28;20083;-76
2022/10/04 12:11:04;;;;;;;5.53;1.50;;;;;;;;;;4976660;28;20019;-77
2022/10/04 12:13:39;;;;;;;8.07;1.30;;;;;;;;;;4963326;28;20015;-77
2022/10/04 12:16:28;;;;;;;6.32;1.35;;;;;;;;;;4976400;28;20030;-77
2022/10/04 12:19:14;;;;;;;4.82;1.10;;;;;;;;;;4976134;28;20050;-77
2022/10/04 12:21:43;;;;;;;6.78;1.30;;;;;;;;;;4975948;28;20015;-75
2022/10/04 12:24:13;;;;;;;4.03;1.08;;;;;;;;;;4976080;28;20110;-76
2022/10/04 12:26:42;;;;;;;5.75;0.93;;;;;;;;;;4976123;28;20638;-76
2022/10/04 12:29:17;;;;;;;5.57;1.27;;;;;;;;;;4975795;28;20049;-75
2022/10/04 12:31:52;;;;;;;4.40;1.27;;;;;;;;;;4975711;28;20102;-76
2022/10/04 12:34:30;;;;;;;5.20;1.38;;;;;;;;;;4976343;28;20046;-77
2022/10/04 12:37:17;;;;;;;11.95;1.33;;;;;;;;;;4963896;28;20026;-76
2022/10/04 12:39:56;;;;;;;4.88;1.05;;;;;;;;;;4975605;28;20027;-74
2022/10/04 12:42:34;;;;;;;4.00;1.38;;;;;;;;;;4975899;28;20122;-77
2022/10/04 12:45:00;;;;;;;6.93;2.13;;;;;;;;;;4975553;28;20034;-76
2022/10/04 12:47:32;;;;;;;5.03;1.50;;;;;;;;;;4975299;28;20023;-77
2022/10/04 12:50:01;;;;;;;2.42;1.20;;;;;;;;;;4975617;28;20027;-79
2022/10/04 12:52:31;;;;;;;6.32;1.70;;;;;;;;;;4975445;28;20027;-77
2022/10/04 12:55:13;;;;;;;5.55;1.20;;;;;;;;;;4974558;28;20439;-78
2022/10/04 12:57:58;;;;;;;5.97;1.15;;;;;;;;;;4975129;28;20034;-78
2022/10/04 13:00:25;;;;;;;5.82;1.15;;;;;;;;;;4973034;28;20027;-76
2022/10/04 13:03:09;;;;;;;3.40;1.13;;;;;;;;;;4974561;28;20389;-75
2022/10/04 13:05:35;;;;;;;4.53;1.23;;;;;;;;;;4975245;28;20691;-77
2022/10/04 13:08:02;;;;;;;4.13;1.15;;;;;;;;;;4972689;28;20105;-77
2022/10/04 13:10:28;;;;;;;3.13;1.33;;;;;;;;;;4973508;28;20022;-77
2022/10/04 13:13:13;;;;;;;7.60;1.40;;;;;;;;;;4972296;28;20030;-77
2022/10/04 13:15:44;;;;;;;3.65;1.08;;;;;;;;;;4955933;28;20062;-78
2022/10/04 13:18:27;;;;;;;6.00;1.50;;;;;;;;;;4972957;28;20444;-75
2022/10/04 13:21:01;;;;;;;2.97;1.30;;;;;;;;;;4973838;28;20593;-77
2022/10/04 13:23:36;;;;;;;5.88;1.33;;;;;;;;;;4975001;28;20118;-77
2022/10/04 13:26:06;;;;;;;5.07;1.20;;;;;;;;;;4974945;28;20031;-77
2022/10/04 13:28:55;;;;;;;7.03;1.33;;;;;;;;;;4962181;28;20049;-76
2022/10/04 13:31:37;;;;;;;7.22;1.10;;;;;;;;;;4957684;28;20090;-77
2022/10/04 13:34:10;;;;;;;3.67;1.00;;;;;;;;;;4975195;28;20126;-76
2022/10/04 13:36:55;;;;;;;4.20;1.42;;;;;;;;;;4975036;28;20419;-75
2022/10/04 13:39:24;;;;;;;4.93;1.40;;;;;;;;;;4974769;28;20054;-78
2022/10/04 13:41:53;;;;;;;4.18;1.38;;;;;;;;;;4975203;28;20061;-77
2022/10/04 13:44:18;;;;;;;5.35;1.40;;;;;;;;;;4992086;28;20069;-80
2022/10/04 13:46:51;;;;;;;3.40;1.38;;;;;;;;;;4996892;28;20027;-78
2022/10/04 13:49:35;;;;;;;4.60;1.30;;;;;;;;;;4993146;28;20401;-79
2022/10/04 13:57:53;;;;;;;3.80;0.88;;;;;;;;;;4975772;28;20120;-79
2022/10/04 14:00:29;;;;;;;2.63;0.80;;;;;;;;;;4975642;28;20027;-77
2022/10/04 14:02:55;;;;;;;2.47;0.80;;;;;;;;;;4974897;28;20089;-76
2022/10/04 14:05:40;;;;;;;3.53;1.25;;;;;;;;;;4975340;28;20109;-77
2022/10/04 14:08:06;;;;;;;3.95;1.02;;;;;;;;;;4974984;28;20023;-76
2022/10/04 14:10:47;;;;;;;3.13;1.35;;;;;;;;;;4975318;28;20077;-77
2022/10/04 14:13:32;;;;;;;5.40;0.90;;;;;;;;;;4975047;28;20029;-78
2022/10/04 14:16:13;;;;;;;3.90;1.05;;;;;;;;;;4957055;28;20121;-77
2022/10/04 14:19:11;;;;;;;3.63;1.15;;;;;;;;;;4974204;28;20019;-77
2022/10/04 14:21:49;;;;;;;4.80;0.93;;;;;;;;;;4974346;28;20045;-77
2022/10/04 14:24:21;;;;;;;3.40;0.98;;;;;;;;;;4974371;28;20105;-76
2022/10/04 14:27:14;;;;;;;4.55;0.82;;;;;;;;;;4974298;28;20023;-76
2022/10/04 14:29:53;;;;;;;4.78;1.02;;;;;;;;;;4951121;28;20493;-79
2022/10/04 14:32:29;;;;;;;3.53;1.10;;;;;;;;;;4973306;28;20038;-77
2022/10/04 14:35:01;;;;;;;4.05;0.77;;;;;;;;;;4974352;28;20035;-74
2022/10/04 14:37:49;;;;;;;4.15;1.17;;;;;;;;;;4974526;28;20065;-77
2022/10/04 14:40:34;;;;;;;3.63;1.00;;;;;;;;;;4962254;28;20027;-77
2022/10/04 14:43:18;;;;;;;2.70;0.90;;;;;;;;;;4976553;28;20050;-79
2022/10/04 14:45:52;;;;;;;6.38;1.15;;;;;;;;;;4976281;28;20019;-77
2022/10/04 14:48:37;;;;;;;3.38;1.30;;;;;;;;;;4976787;28;20019;-77
2022/10/04 14:51:13;;;;;;;2.40;1.05;;;;;;;;;;4988038;28;20026;-81
2022/10/04 14:53:39;;;;;;;4.80;1.20;;;;;;;;;;4981896;28;20082;-79
2022/10/04 14:56:11;;;;;;;3.63;0.70;;;;;;;;;;4989712;28;20079;-80
2022/10/04 14:58:48;;;;;;;2.63;1.00;;;;;;;;;;4994299;28;20038;-78
2022/10/04 15:01:24;;;;;;;1.67;0.88;;;;;;;;;;4991660;28;20045;-76
2022/10/04 15:03:56;;;;;;;4.43;1.52;;;;;;;;;;4956962;28;20030;-76
2022/10/04 15:06:22;;;;;;;4.35;1.55;;;;;;;;;;4973666;28;20025;-77
2022/10/04 15:09:06;;;;;;;2.95;0.73;;;;;;;;;;4973920;28;20021;-75
2022/10/04 15:11:33;;;;;;;5.22;1.23;;;;;;;;;;4974200;28;20370;-77
2022/10/04 15:14:04;;;;;;;3.53;0.70;;;;;;;;;;4974020;28;20485;-77
2022/10/04 15:16:41;;;;;;;3.17;1.02;;;;;;;;;;4973895;28;20030;-77
2022/10/04 15:19:18;;;;;;;3.88;0.82;;;;;;;;;;4973533;28;20038;-77
2022/10/04 15:21:44;;;;;;;2.38;1.10;;;;;;;;;;4973280;28;20113;-77
2022/10/04 15:24:10;;;;;;;1.63;0.70;;;;;;;;;;4973942;28;20118;-77
2022/10/04 15:26:44;;;;;;;4.85;0.65;;;;;;;;;;4973250;28;20047;-77
2022/10/04 15:29:22;;;;;;;2.25;0.88;;;;;;;;;;4955949;28;20078;-77
2022/10/04 15:32:06;;;;;;;4.40;1.00;;;;;;;;;;4973350;28;20113;-76
2022/10/04 15:34:37;;;;;;;2.65;1.15;;;;;;;;;;4972790;28;20572;-77
2022/10/04 15:37:03;;;;;;;;;;;;;;;;;;4974033;28;20031;-75